sensor_id;sensor_type;location;lat;lon;timestamp;P1;durP1;ratioP1;P2;durP2;ratioP2
29196;SDS011;62796;42.654;23.316;2022-12-18T00:01:49;9.13;;;5.97;;
29196;SDS011;62796;42.654;23.316;2022-12-18T00:04:20;7.90;;;5.90;;
29196;SDS011;62796;42.654;23.316;2022-12-18T00:06:46;8.30;;;6.25;;
29196;SDS011;62796;42.654;23.316;2022-12-18T00:09:12;7.95;;;5.97;;
29196;SDS011;62796;42.654;23.316;2022-12-18T00:11:37;12.05;;;6.30;;
29196;SDS011;62796;42.654;23.316;2022-12-18T00:14:03;9.70;;;6.55;;
29196;SDS011;62796;42.654;23.316;2022-12-18T00:16:29;9.00;;;6.68;;
29196;SDS011;62796;42.654;23.316;2022-12-18T00:18:59;8.27;;;6.28;;
29196;SDS011;62796;42.654;23.316;2022-12-18T00:21:25;8.68;;;6.72;;
29196;SDS011;62796;42.654;23.316;2022-12-18T00:23:51;11.02;;;7.22;;
29196;SDS011;62796;42.654;23.316;2022-12-18T00:26:18;10.77;;;7.43;;
29196;SDS011;62796;42.654;23.316;2022-12-18T00:28:45;11.68;;;7.32;;
29196;SDS011;62796;42.654;23.316;2022-12-18T00:31:12;11.02;;;7.20;;
29196;SDS011;62796;42.654;23.316;2022-12-18T00:33:40;10.50;;;6.72;;
29196;SDS011;62796;42.654;23.316;2022-12-18T00:36:13;10.80;;;6.88;;
29196;SDS011;62796;42.654;23.316;2022-12-18T00:38:44;11.35;;;6.60;;
29196;SDS011;62796;42.654;23.316;2022-12-18T00:41:10;10.48;;;7.22;;
29196;SDS011;62796;42.654;23.316;2022-12-18T00:43:37;11.82;;;7.93;;
29196;SDS011;62796;42.654;23.316;2022-12-18T00:46:03;10.40;;;8.05;;
29196;SDS011;62796;42.654;23.316;2022-12-18T00:48:29;10.40;;;7.43;;
29196;SDS011;62796;42.654;23.316;2022-12-18T00:50:55;13.63;;;8.38;;
29196;SDS011;62796;42.654;23.316;2022-12-18T00:53:20;11.88;;;7.45;;
29196;SDS011;62796;42.654;23.316;2022-12-18T00:55:46;12.38;;;7.85;;
29196;SDS011;62796;42.654;23.316;2022-12-18T00:58:12;12.95;;;7.82;;
29196;SDS011;62796;42.654;23.316;2022-12-18T01:00:39;11.95;;;8.07;;
29196;SDS011;62796;42.654;23.316;2022-12-18T01:03:05;11.63;;;8.15;;
29196;SDS011;62796;42.654;23.316;2022-12-18T01:05:31;11.40;;;7.90;;
29196;SDS011;62796;42.654;23.316;2022-12-18T01:07:56;12.15;;;8.00;;
29196;SDS011;62796;42.654;23.316;2022-12-18T01:10:22;10.70;;;7.65;;
29196;SDS011;62796;42.654;23.316;2022-12-18T01:12:48;12.60;;;8.43;;
29196;SDS011;62796;42.654;23.316;2022-12-18T01:15:14;11.50;;;8.07;;
29196;SDS011;62796;42.654;23.316;2022-12-18T01:17:40;12.73;;;8.70;;
29196;SDS011;62796;42.654;23.316;2022-12-18T01:20:05;11.77;;;8.27;;
29196;SDS011;62796;42.654;23.316;2022-12-18T01:22:35;12.50;;;8.15;;
29196;SDS011;62796;42.654;23.316;2022-12-18T01:25:01;12.73;;;8.73;;
29196;SDS011;62796;42.654;23.316;2022-12-18T01:27:27;13.10;;;8.30;;
29196;SDS011;62796;42.654;23.316;2022-12-18T01:29:52;12.90;;;7.88;;
29196;SDS011;62796;42.654;23.316;2022-12-18T01:32:18;12.10;;;8.35;;
29196;SDS011;62796;42.654;23.316;2022-12-18T01:34:43;13.63;;;8.60;;
29196;SDS011;62796;42.654;23.316;2022-12-18T01:37:09;13.95;;;9.00;;
29196;SDS011;62796;42.654;23.316;2022-12-18T01:39:35;10.70;;;8.02;;
29196;SDS011;62796;42.654;23.316;2022-12-18T01:42:02;13.85;;;8.57;;
29196;SDS011;62796;42.654;23.316;2022-12-18T01:48:04;13.18;;;8.90;;
29196;SDS011;62796;42.654;23.316;2022-12-18T01:53:00;11.50;;;8.48;;
29196;SDS011;62796;42.654;23.316;2022-12-18T01:55:31;12.85;;;8.73;;
29196;SDS011;62796;42.654;23.316;2022-12-18T01:58:01;11.85;;;8.75;;
29196;SDS011;62796;42.654;23.316;2022-12-18T02:00:27;14.45;;;9.10;;
29196;SDS011;62796;42.654;23.316;2022-12-18T02:02:53;13.70;;;8.90;;
29196;SDS011;62796;42.654;23.316;2022-12-18T02:05:23;14.98;;;9.00;;
29196;SDS011;62796;42.654;23.316;2022-12-18T02:08:09;14.43;;;8.80;;
29196;SDS011;62796;42.654;23.316;2022-12-18T02:14:15;15.75;;;9.93;;
29196;SDS011;62796;42.654;23.316;2022-12-18T02:22:18;17.63;;;9.43;;
29196;SDS011;62796;42.654;23.316;2022-12-18T02:25:06;14.85;;;8.80;;
29196;SDS011;62796;42.654;23.316;2022-12-18T02:27:47;14.07;;;9.50;;
29196;SDS011;62796;42.654;23.316;2022-12-18T02:30:15;15.27;;;9.05;;
29196;SDS011;62796;42.654;23.316;2022-12-18T02:32:44;15.82;;;9.23;;
29196;SDS011;62796;42.654;23.316;2022-12-18T02:35:15;14.73;;;8.50;;
29196;SDS011;62796;42.654;23.316;2022-12-18T02:37:43;14.93;;;8.73;;
29196;SDS011;62796;42.654;23.316;2022-12-18T02:40:12;16.35;;;9.00;;
29196;SDS011;62796;42.654;23.316;2022-12-18T02:42:42;13.13;;;9.07;;
29196;SDS011;62796;42.654;23.316;2022-12-18T02:45:07;12.93;;;8.80;;
29196;SDS011;62796;42.654;23.316;2022-12-18T02:47:34;14.98;;;9.10;;
29196;SDS011;62796;42.654;23.316;2022-12-18T02:59:21;14.77;;;8.40;;
29196;SDS011;62796;42.654;23.316;2022-12-18T03:02:08;13.45;;;8.40;;
29196;SDS011;62796;42.654;23.316;2022-12-18T03:04:51;13.55;;;8.75;;
29196;SDS011;62796;42.654;23.316;2022-12-18T03:07:42;12.63;;;8.13;;
29196;SDS011;62796;42.654;23.316;2022-12-18T03:10:14;12.20;;;8.10;;
29196;SDS011;62796;42.654;23.316;2022-12-18T03:12:47;11.88;;;8.35;;
29196;SDS011;62796;42.654;23.316;2022-12-18T03:15:24;13.90;;;8.50;;
29196;SDS011;62796;42.654;23.316;2022-12-18T03:17:57;12.55;;;8.55;;
29196;SDS011;62796;42.654;23.316;2022-12-18T03:20:26;12.50;;;8.15;;
29196;SDS011;62796;42.654;23.316;2022-12-18T03:22:57;13.50;;;8.05;;
29196;SDS011;62796;42.654;23.316;2022-12-18T03:25:27;12.35;;;8.30;;
29196;SDS011;62796;42.654;23.316;2022-12-18T03:27:54;11.70;;;8.45;;
29196;SDS011;62796;42.654;23.316;2022-12-18T03:30:23;14.55;;;8.95;;
29196;SDS011;62796;42.654;23.316;2022-12-18T03:33:04;12.38;;;8.30;;
29196;SDS011;62796;42.654;23.316;2022-12-18T03:35:34;11.23;;;6.85;;
29196;SDS011;62796;42.654;23.316;2022-12-18T03:38:02;13.88;;;7.53;;
29196;SDS011;62796;42.654;23.316;2022-12-18T03:40:35;12.98;;;8.20;;
29196;SDS011;62796;42.654;23.316;2022-12-18T03:43:15;10.32;;;7.22;;
29196;SDS011;62796;42.654;23.316;2022-12-18T03:45:48;9.63;;;6.68;;
29196;SDS011;62796;42.654;23.316;2022-12-18T03:48:28;10.07;;;7.05;;
29196;SDS011;62796;42.654;23.316;2022-12-18T03:51:01;10.73;;;6.90;;
29196;SDS011;62796;42.654;23.316;2022-12-18T03:53:36;9.55;;;6.78;;
29196;SDS011;62796;42.654;23.316;2022-12-18T03:56:12;11.05;;;7.18;;
29196;SDS011;62796;42.654;23.316;2022-12-18T03:58:41;11.10;;;6.63;;
29196;SDS011;62796;42.654;23.316;2022-12-18T04:01:08;11.52;;;7.22;;
29196;SDS011;62796;42.654;23.316;2022-12-18T04:03:38;9.98;;;6.70;;
29196;SDS011;62796;42.654;23.316;2022-12-18T04:06:04;11.85;;;7.43;;
29196;SDS011;62796;42.654;23.316;2022-12-18T04:08:31;11.55;;;7.28;;
29196;SDS011;62796;42.654;23.316;2022-12-18T04:10:59;9.98;;;7.15;;
29196;SDS011;62796;42.654;23.316;2022-12-18T04:13:29;10.48;;;6.63;;
29196;SDS011;62796;42.654;23.316;2022-12-18T04:15:58;11.98;;;7.32;;
29196;SDS011;62796;42.654;23.316;2022-12-18T04:18:23;10.07;;;7.10;;
29196;SDS011;62796;42.654;23.316;2022-12-18T04:20:48;10.70;;;7.35;;
29196;SDS011;62796;42.654;23.316;2022-12-18T04:23:14;10.98;;;7.20;;
29196;SDS011;62796;42.654;23.316;2022-12-18T04:25:39;11.18;;;7.40;;
29196;SDS011;62796;42.654;23.316;2022-12-18T04:28:05;10.93;;;7.18;;
29196;SDS011;62796;42.654;23.316;2022-12-18T04:30:30;12.48;;;7.63;;
29196;SDS011;62796;42.654;23.316;2022-12-18T04:32:56;12.85;;;8.00;;
29196;SDS011;62796;42.654;23.316;2022-12-18T04:35:21;12.48;;;8.00;;
29196;SDS011;62796;42.654;23.316;2022-12-18T04:37:46;13.65;;;8.07;;
29196;SDS011;62796;42.654;23.316;2022-12-18T04:40:12;12.55;;;8.10;;
29196;SDS011;62796;42.654;23.316;2022-12-18T04:42:38;13.10;;;7.82;;
29196;SDS011;62796;42.654;23.316;2022-12-18T04:45:04;14.10;;;9.10;;
29196;SDS011;62796;42.654;23.316;2022-12-18T04:47:30;13.48;;;8.68;;
29196;SDS011;62796;42.654;23.316;2022-12-18T04:49:55;15.18;;;8.95;;
29196;SDS011;62796;42.654;23.316;2022-12-18T04:52:21;17.10;;;9.82;;
29196;SDS011;62796;42.654;23.316;2022-12-18T04:54:46;17.90;;;9.40;;
29196;SDS011;62796;42.654;23.316;2022-12-18T04:57:12;14.65;;;8.63;;
29196;SDS011;62796;42.654;23.316;2022-12-18T04:59:37;14.90;;;9.70;;
29196;SDS011;62796;42.654;23.316;2022-12-18T05:02:02;16.80;;;9.55;;
29196;SDS011;62796;42.654;23.316;2022-12-18T05:04:28;16.73;;;9.82;;
29196;SDS011;62796;42.654;23.316;2022-12-18T05:06:53;18.35;;;9.20;;
29196;SDS011;62796;42.654;23.316;2022-12-18T05:09:19;15.52;;;9.80;;
29196;SDS011;62796;42.654;23.316;2022-12-18T05:11:44;15.80;;;10.18;;
29196;SDS011;62796;42.654;23.316;2022-12-18T05:14:10;18.33;;;10.23;;
29196;SDS011;62796;42.654;23.316;2022-12-18T05:16:35;20.27;;;9.80;;
29196;SDS011;62796;42.654;23.316;2022-12-18T05:19:01;17.02;;;10.15;;
29196;SDS011;62796;42.654;23.316;2022-12-18T05:21:26;18.02;;;10.82;;
29196;SDS011;62796;42.654;23.316;2022-12-18T05:23:52;18.05;;;10.98;;
29196;SDS011;62796;42.654;23.316;2022-12-18T05:26:17;19.35;;;10.70;;
29196;SDS011;62796;42.654;23.316;2022-12-18T05:28:43;19.70;;;10.25;;
29196;SDS011;62796;42.654;23.316;2022-12-18T05:31:09;21.80;;;11.77;;
29196;SDS011;62796;42.654;23.316;2022-12-18T05:33:35;20.15;;;11.80;;
29196;SDS011;62796;42.654;23.316;2022-12-18T05:36:04;17.83;;;11.48;;
29196;SDS011;62796;42.654;23.316;2022-12-18T05:38:31;21.23;;;11.85;;
29196;SDS011;62796;42.654;23.316;2022-12-18T05:40:58;20.45;;;11.38;;
29196;SDS011;62796;42.654;23.316;2022-12-18T05:43:24;19.00;;;10.88;;
29196;SDS011;62796;42.654;23.316;2022-12-18T05:45:50;18.92;;;10.65;;
29196;SDS011;62796;42.654;23.316;2022-12-18T05:48:16;21.95;;;11.38;;
29196;SDS011;62796;42.654;23.316;2022-12-18T05:50:43;16.90;;;10.00;;
29196;SDS011;62796;42.654;23.316;2022-12-18T05:53:10;18.27;;;11.30;;
29196;SDS011;62796;42.654;23.316;2022-12-18T05:55:36;22.23;;;11.57;;
29196;SDS011;62796;42.654;23.316;2022-12-18T05:58:03;24.63;;;12.40;;
29196;SDS011;62796;42.654;23.316;2022-12-18T06:00:30;21.98;;;12.40;;
29196;SDS011;62796;42.654;23.316;2022-12-18T06:02:57;24.63;;;12.77;;
29196;SDS011;62796;42.654;23.316;2022-12-18T06:05:22;22.20;;;12.23;;
29196;SDS011;62796;42.654;23.316;2022-12-18T06:07:48;22.13;;;12.50;;
29196;SDS011;62796;42.654;23.316;2022-12-18T06:10:13;21.92;;;12.52;;
29196;SDS011;62796;42.654;23.316;2022-12-18T06:12:39;25.77;;;13.73;;
29196;SDS011;62796;42.654;23.316;2022-12-18T06:15:04;19.52;;;12.13;;
29196;SDS011;62796;42.654;23.316;2022-12-18T06:17:30;21.73;;;13.52;;
29196;SDS011;62796;42.654;23.316;2022-12-18T06:19:56;23.70;;;13.15;;
29196;SDS011;62796;42.654;23.316;2022-12-18T06:22:22;22.42;;;12.25;;
29196;SDS011;62796;42.654;23.316;2022-12-18T06:24:47;22.48;;;12.57;;
29196;SDS011;62796;42.654;23.316;2022-12-18T06:27:13;19.50;;;12.35;;
29196;SDS011;62796;42.654;23.316;2022-12-18T06:29:39;25.05;;;13.55;;
29196;SDS011;62796;42.654;23.316;2022-12-18T06:32:04;22.88;;;12.77;;
29196;SDS011;62796;42.654;23.316;2022-12-18T06:34:30;23.23;;;13.10;;
29196;SDS011;62796;42.654;23.316;2022-12-18T06:36:55;22.02;;;13.43;;
29196;SDS011;62796;42.654;23.316;2022-12-18T06:39:20;21.30;;;12.23;;
29196;SDS011;62796;42.654;23.316;2022-12-18T06:41:46;22.40;;;13.48;;
29196;SDS011;62796;42.654;23.316;2022-12-18T06:44:11;21.42;;;13.77;;
29196;SDS011;62796;42.654;23.316;2022-12-18T06:46:36;20.02;;;12.88;;
29196;SDS011;62796;42.654;23.316;2022-12-18T06:49:03;23.10;;;13.25;;
29196;SDS011;62796;42.654;23.316;2022-12-18T06:51:28;21.85;;;12.63;;
29196;SDS011;62796;42.654;23.316;2022-12-18T06:53:54;21.40;;;12.60;;
29196;SDS011;62796;42.654;23.316;2022-12-18T06:56:19;23.63;;;13.70;;
29196;SDS011;62796;42.654;23.316;2022-12-18T06:58:45;23.70;;;13.73;;
29196;SDS011;62796;42.654;23.316;2022-12-18T07:01:11;21.17;;;13.02;;
29196;SDS011;62796;42.654;23.316;2022-12-18T07:03:38;22.52;;;13.57;;
29196;SDS011;62796;42.654;23.316;2022-12-18T07:06:04;27.38;;;14.52;;
29196;SDS011;62796;42.654;23.316;2022-12-18T07:08:30;24.98;;;14.20;;
29196;SDS011;62796;42.654;23.316;2022-12-18T07:10:56;22.52;;;12.52;;
29196;SDS011;62796;42.654;23.316;2022-12-18T07:13:21;21.80;;;13.23;;
29196;SDS011;62796;42.654;23.316;2022-12-18T07:15:47;23.58;;;13.38;;
29196;SDS011;62796;42.654;23.316;2022-12-18T07:18:12;22.13;;;12.02;;
29196;SDS011;62796;42.654;23.316;2022-12-18T07:20:38;25.20;;;13.20;;
29196;SDS011;62796;42.654;23.316;2022-12-18T07:23:03;21.85;;;12.98;;
29196;SDS011;62796;42.654;23.316;2022-12-18T07:25:32;20.23;;;11.77;;
29196;SDS011;62796;42.654;23.316;2022-12-18T07:27:59;21.48;;;12.93;;
29196;SDS011;62796;42.654;23.316;2022-12-18T07:30:24;23.63;;;13.82;;
29196;SDS011;62796;42.654;23.316;2022-12-18T07:32:50;23.42;;;13.93;;
29196;SDS011;62796;42.654;23.316;2022-12-18T07:35:15;25.88;;;13.65;;
29196;SDS011;62796;42.654;23.316;2022-12-18T07:37:41;27.08;;;15.77;;
29196;SDS011;62796;42.654;23.316;2022-12-18T07:40:07;24.75;;;14.60;;
29196;SDS011;62796;42.654;23.316;2022-12-18T07:42:33;24.83;;;13.88;;
29196;SDS011;62796;42.654;23.316;2022-12-18T07:44:59;25.23;;;13.70;;
29196;SDS011;62796;42.654;23.316;2022-12-18T07:47:26;26.73;;;13.55;;
29196;SDS011;62796;42.654;23.316;2022-12-18T07:49:52;22.58;;;13.32;;
29196;SDS011;62796;42.654;23.316;2022-12-18T07:52:18;25.83;;;14.52;;
29196;SDS011;62796;42.654;23.316;2022-12-18T07:54:43;26.60;;;14.55;;
29196;SDS011;62796;42.654;23.316;2022-12-18T07:57:09;27.17;;;15.32;;
29196;SDS011;62796;42.654;23.316;2022-12-18T07:59:34;24.27;;;13.63;;
29196;SDS011;62796;42.654;23.316;2022-12-18T08:02:00;28.80;;;15.80;;
29196;SDS011;62796;42.654;23.316;2022-12-18T08:04:26;28.10;;;16.23;;
29196;SDS011;62796;42.654;23.316;2022-12-18T08:06:51;29.80;;;15.75;;
29196;SDS011;62796;42.654;23.316;2022-12-18T08:09:16;31.38;;;16.88;;
29196;SDS011;62796;42.654;23.316;2022-12-18T08:11:42;29.98;;;15.85;;
29196;SDS011;62796;42.654;23.316;2022-12-18T08:14:08;28.20;;;16.95;;
29196;SDS011;62796;42.654;23.316;2022-12-18T08:16:33;31.75;;;16.42;;
29196;SDS011;62796;42.654;23.316;2022-12-18T08:18:59;27.98;;;16.33;;
29196;SDS011;62796;42.654;23.316;2022-12-18T08:21:28;35.00;;;17.42;;
29196;SDS011;62796;42.654;23.316;2022-12-18T08:23:57;30.40;;;17.58;;
29196;SDS011;62796;42.654;23.316;2022-12-18T08:26:25;28.55;;;16.85;;
29196;SDS011;62796;42.654;23.316;2022-12-18T08:28:53;35.78;;;18.83;;
29196;SDS011;62796;42.654;23.316;2022-12-18T08:31:20;35.35;;;18.02;;
29196;SDS011;62796;42.654;23.316;2022-12-18T08:33:47;36.05;;;18.55;;
29196;SDS011;62796;42.654;23.316;2022-12-18T08:36:15;32.75;;;17.90;;
29196;SDS011;62796;42.654;23.316;2022-12-18T08:38:40;30.38;;;17.70;;
29196;SDS011;62796;42.654;23.316;2022-12-18T08:41:06;32.20;;;18.17;;
29196;SDS011;62796;42.654;23.316;2022-12-18T08:43:34;31.35;;;18.45;;
29196;SDS011;62796;42.654;23.316;2022-12-18T08:46:18;35.08;;;19.52;;
29196;SDS011;62796;42.654;23.316;2022-12-18T08:48:44;37.35;;;20.15;;
29196;SDS011;62796;42.654;23.316;2022-12-18T08:51:10;36.28;;;20.35;;
29196;SDS011;62796;42.654;23.316;2022-12-18T08:53:36;33.05;;;18.35;;
29196;SDS011;62796;42.654;23.316;2022-12-18T08:56:02;39.47;;;20.45;;
29196;SDS011;62796;42.654;23.316;2022-12-18T08:58:29;40.92;;;21.13;;
29196;SDS011;62796;42.654;23.316;2022-12-18T09:00:59;43.75;;;23.98;;
29196;SDS011;62796;42.654;23.316;2022-12-18T09:03:25;35.58;;;19.10;;
29196;SDS011;62796;42.654;23.316;2022-12-18T09:05:51;35.13;;;19.52;;
29196;SDS011;62796;42.654;23.316;2022-12-18T09:08:16;38.95;;;19.20;;
29196;SDS011;62796;42.654;23.316;2022-12-18T09:10:42;37.80;;;20.15;;
29196;SDS011;62796;42.654;23.316;2022-12-18T09:13:09;36.33;;;19.73;;
29196;SDS011;62796;42.654;23.316;2022-12-18T09:15:40;37.80;;;19.65;;
29196;SDS011;62796;42.654;23.316;2022-12-18T09:18:10;36.10;;;19.40;;
29196;SDS011;62796;42.654;23.316;2022-12-18T09:20:36;36.67;;;19.02;;
29196;SDS011;62796;42.654;23.316;2022-12-18T09:23:02;38.58;;;20.27;;
29196;SDS011;62796;42.654;23.316;2022-12-18T09:25:28;36.72;;;19.52;;
29196;SDS011;62796;42.654;23.316;2022-12-18T09:28:11;34.47;;;17.80;;
29196;SDS011;62796;42.654;23.316;2022-12-18T09:30:42;33.28;;;17.60;;
29196;SDS011;62796;42.654;23.316;2022-12-18T09:33:12;35.53;;;18.85;;
29196;SDS011;62796;42.654;23.316;2022-12-18T09:35:38;37.88;;;19.42;;
29196;SDS011;62796;42.654;23.316;2022-12-18T09:38:04;33.83;;;18.10;;
29196;SDS011;62796;42.654;23.316;2022-12-18T09:40:34;33.08;;;18.08;;
29196;SDS011;62796;42.654;23.316;2022-12-18T09:43:04;31.70;;;17.95;;
29196;SDS011;62796;42.654;23.316;2022-12-18T09:45:38;33.15;;;17.77;;
29196;SDS011;62796;42.654;23.316;2022-12-18T09:48:31;36.88;;;18.02;;
29196;SDS011;62796;42.654;23.316;2022-12-18T09:51:00;35.08;;;19.00;;
29196;SDS011;62796;42.654;23.316;2022-12-18T09:53:32;34.45;;;18.30;;
29196;SDS011;62796;42.654;23.316;2022-12-18T09:56:03;32.75;;;19.48;;
29196;SDS011;62796;42.654;23.316;2022-12-18T10:00:55;32.13;;;18.05;;
29196;SDS011;62796;42.654;23.316;2022-12-18T10:03:21;37.35;;;18.30;;
29196;SDS011;62796;42.654;23.316;2022-12-18T10:06:02;36.63;;;18.98;;
29196;SDS011;62796;42.654;23.316;2022-12-18T10:11:49;30.55;;;16.67;;
29196;SDS011;62796;42.654;23.316;2022-12-18T10:13:55;36.92;;;17.90;;
29196;SDS011;62796;42.654;23.316;2022-12-18T10:19:47;28.80;;;17.10;;
29196;SDS011;62796;42.654;23.316;2022-12-18T10:25:22;35.20;;;17.27;;
29196;SDS011;62796;42.654;23.316;2022-12-18T10:27:56;32.58;;;17.83;;
29196;SDS011;62796;42.654;23.316;2022-12-18T10:30:25;29.55;;;15.32;;
29196;SDS011;62796;42.654;23.316;2022-12-18T10:32:51;28.38;;;15.52;;
29196;SDS011;62796;42.654;23.316;2022-12-18T10:35:19;30.00;;;16.25;;
29196;SDS011;62796;42.654;23.316;2022-12-18T10:37:59;30.77;;;16.23;;
29196;SDS011;62796;42.654;23.316;2022-12-18T10:43:26;30.52;;;16.38;;
29196;SDS011;62796;42.654;23.316;2022-12-18T10:51:04;31.15;;;16.40;;
29196;SDS011;62796;42.654;23.316;2022-12-18T10:53:31;29.58;;;15.32;;
29196;SDS011;62796;42.654;23.316;2022-12-18T10:56:00;30.77;;;17.10;;
29196;SDS011;62796;42.654;23.316;2022-12-18T10:58:29;35.67;;;17.20;;
29196;SDS011;62796;42.654;23.316;2022-12-18T11:01:16;34.40;;;16.65;;
29196;SDS011;62796;42.654;23.316;2022-12-18T11:03:45;26.67;;;14.85;;
29196;SDS011;62796;42.654;23.316;2022-12-18T11:06:23;31.63;;;16.02;;
29196;SDS011;62796;42.654;23.316;2022-12-18T11:11:26;27.65;;;14.45;;
29196;SDS011;62796;42.654;23.316;2022-12-18T11:13:56;30.88;;;14.38;;
29196;SDS011;62796;42.654;23.316;2022-12-18T11:16:26;28.48;;;14.85;;
29196;SDS011;62796;42.654;23.316;2022-12-18T11:18:57;29.15;;;14.93;;
29196;SDS011;62796;42.654;23.316;2022-12-18T11:21:42;30.55;;;15.68;;
29196;SDS011;62796;42.654;23.316;2022-12-18T11:24:14;31.98;;;15.13;;
29196;SDS011;62796;42.654;23.316;2022-12-18T11:26:45;30.20;;;15.18;;
29196;SDS011;62796;42.654;23.316;2022-12-18T11:29:16;28.90;;;15.00;;
29196;SDS011;62796;42.654;23.316;2022-12-18T11:31:42;28.27;;;14.57;;
29196;SDS011;62796;42.654;23.316;2022-12-18T11:34:27;30.48;;;14.15;;
29196;SDS011;62796;42.654;23.316;2022-12-18T11:36:55;27.67;;;14.20;;
29196;SDS011;62796;42.654;23.316;2022-12-18T11:39:30;34.50;;;13.80;;
29196;SDS011;62796;42.654;23.316;2022-12-18T11:42:01;26.92;;;14.40;;
29196;SDS011;62796;42.654;23.316;2022-12-18T11:50:16;28.05;;;13.57;;
29196;SDS011;62796;42.654;23.316;2022-12-18T11:52:47;23.27;;;13.10;;
29196;SDS011;62796;42.654;23.316;2022-12-18T11:55:19;23.88;;;12.93;;
29196;SDS011;62796;42.654;23.316;2022-12-18T12:09:31;25.98;;;13.60;;
29196;SDS011;62796;42.654;23.316;2022-12-18T12:17:12;32.67;;;14.57;;
29196;SDS011;62796;42.654;23.316;2022-12-18T12:27:58;29.48;;;14.85;;
29196;SDS011;62796;42.654;23.316;2022-12-18T12:31:07;30.02;;;14.88;;
29196;SDS011;62796;42.654;23.316;2022-12-18T12:34:09;31.77;;;15.05;;
29196;SDS011;62796;42.654;23.316;2022-12-18T12:36:44;31.23;;;15.05;;
29196;SDS011;62796;42.654;23.316;2022-12-18T12:39:33;28.17;;;14.75;;
29196;SDS011;62796;42.654;23.316;2022-12-18T12:42:03;28.23;;;15.68;;
29196;SDS011;62796;42.654;23.316;2022-12-18T12:44:54;31.60;;;16.88;;
29196;SDS011;62796;42.654;23.316;2022-12-18T12:47:26;31.05;;;16.88;;
29196;SDS011;62796;42.654;23.316;2022-12-18T12:49:56;34.15;;;17.40;;
29196;SDS011;62796;42.654;23.316;2022-12-18T12:52:28;32.97;;;17.70;;
29196;SDS011;62796;42.654;23.316;2022-12-18T12:54:54;30.27;;;16.63;;
29196;SDS011;62796;42.654;23.316;2022-12-18T13:00:24;33.80;;;17.27;;
29196;SDS011;62796;42.654;23.316;2022-12-18T13:05:35;32.45;;;17.48;;
29196;SDS011;62796;42.654;23.316;2022-12-18T13:08:04;33.33;;;17.65;;
29196;SDS011;62796;42.654;23.316;2022-12-18T13:10:39;31.13;;;17.02;;
29196;SDS011;62796;42.654;23.316;2022-12-18T13:13:07;29.75;;;15.90;;
29196;SDS011;62796;42.654;23.316;2022-12-18T13:15:46;29.75;;;16.10;;
29196;SDS011;62796;42.654;23.316;2022-12-18T13:18:23;33.20;;;16.48;;
29196;SDS011;62796;42.654;23.316;2022-12-18T13:26:00;30.42;;;16.42;;
29196;SDS011;62796;42.654;23.316;2022-12-18T13:36:43;33.47;;;16.40;;
29196;SDS011;62796;42.654;23.316;2022-12-18T13:41:47;32.53;;;16.40;;
29196;SDS011;62796;42.654;23.316;2022-12-18T13:44:59;27.27;;;15.35;;
29196;SDS011;62796;42.654;23.316;2022-12-18T13:49:53;33.65;;;17.73;;
29196;SDS011;62796;42.654;23.316;2022-12-18T13:52:26;32.90;;;17.73;;
29196;SDS011;62796;42.654;23.316;2022-12-18T13:54:58;33.50;;;18.13;;
29196;SDS011;62796;42.654;23.316;2022-12-18T13:59:53;34.83;;;18.23;;
29196;SDS011;62796;42.654;23.316;2022-12-18T14:02:22;35.20;;;18.73;;
29196;SDS011;62796;42.654;23.316;2022-12-18T14:04:50;34.15;;;19.02;;
29196;SDS011;62796;42.654;23.316;2022-12-18T14:07:25;36.53;;;18.33;;
29196;SDS011;62796;42.654;23.316;2022-12-18T14:09:56;32.15;;;16.77;;
29196;SDS011;62796;42.654;23.316;2022-12-18T14:12:27;31.70;;;16.88;;
29196;SDS011;62796;42.654;23.316;2022-12-18T14:26:36;27.77;;;14.55;;
29196;SDS011;62796;42.654;23.316;2022-12-18T14:29:17;27.40;;;13.52;;
29196;SDS011;62796;42.654;23.316;2022-12-18T14:31:43;28.42;;;15.15;;
29196;SDS011;62796;42.654;23.316;2022-12-18T14:34:14;29.52;;;14.82;;
29196;SDS011;62796;42.654;23.316;2022-12-18T14:36:52;29.90;;;15.10;;
29196;SDS011;62796;42.654;23.316;2022-12-18T14:39:20;31.15;;;14.77;;
29196;SDS011;62796;42.654;23.316;2022-12-18T14:41:45;27.10;;;15.20;;
29196;SDS011;62796;42.654;23.316;2022-12-18T14:44:13;32.60;;;17.25;;
29196;SDS011;62796;42.654;23.316;2022-12-18T14:46:39;29.17;;;15.50;;
29196;SDS011;62796;42.654;23.316;2022-12-18T14:52:01;28.35;;;15.35;;
29196;SDS011;62796;42.654;23.316;2022-12-18T14:54:29;28.70;;;14.88;;
29196;SDS011;62796;42.654;23.316;2022-12-18T14:57:00;27.45;;;15.00;;
29196;SDS011;62796;42.654;23.316;2022-12-18T14:59:28;30.25;;;16.77;;
29196;SDS011;62796;42.654;23.316;2022-12-18T15:01:59;29.58;;;16.20;;
29196;SDS011;62796;42.654;23.316;2022-12-18T15:04:36;27.15;;;15.13;;
29196;SDS011;62796;42.654;23.316;2022-12-18T15:09:29;34.67;;;16.30;;
29196;SDS011;62796;42.654;23.316;2022-12-18T15:11:58;32.30;;;16.10;;
29196;SDS011;62796;42.654;23.316;2022-12-18T15:14:32;35.25;;;17.13;;
29196;SDS011;62796;42.654;23.316;2022-12-18T15:17:00;24.70;;;14.02;;
29196;SDS011;62796;42.654;23.316;2022-12-18T15:19:36;28.35;;;15.13;;
29196;SDS011;62796;42.654;23.316;2022-12-18T15:22:05;30.35;;;14.68;;
29196;SDS011;62796;42.654;23.316;2022-12-18T15:24:43;31.17;;;14.73;;
29196;SDS011;62796;42.654;23.316;2022-12-18T15:27:22;28.42;;;14.38;;
29196;SDS011;62796;42.654;23.316;2022-12-18T15:30:00;24.50;;;14.40;;
29196;SDS011;62796;42.654;23.316;2022-12-18T15:32:35;31.30;;;15.93;;
29196;SDS011;62796;42.654;23.316;2022-12-18T15:37:44;30.70;;;14.98;;
29196;SDS011;62796;42.654;23.316;2022-12-18T15:40:13;25.60;;;13.80;;
29196;SDS011;62796;42.654;23.316;2022-12-18T15:42:40;22.55;;;12.82;;
29196;SDS011;62796;42.654;23.316;2022-12-18T15:45:25;28.75;;;13.90;;
29196;SDS011;62796;42.654;23.316;2022-12-18T15:47:50;27.52;;;14.15;;
29196;SDS011;62796;42.654;23.316;2022-12-18T15:50:16;25.38;;;14.30;;
29196;SDS011;62796;42.654;23.316;2022-12-18T15:52:42;23.15;;;13.77;;
29196;SDS011;62796;42.654;23.316;2022-12-18T15:55:14;28.33;;;14.43;;
29196;SDS011;62796;42.654;23.316;2022-12-18T15:57:59;27.10;;;13.93;;
29196;SDS011;62796;42.654;23.316;2022-12-18T16:00:25;30.25;;;15.40;;
29196;SDS011;62796;42.654;23.316;2022-12-18T16:02:51;24.52;;;13.20;;
29196;SDS011;62796;42.654;23.316;2022-12-18T16:05:17;26.92;;;14.18;;
29196;SDS011;62796;42.654;23.316;2022-12-18T16:07:44;28.25;;;15.23;;
29196;SDS011;62796;42.654;23.316;2022-12-18T16:10:10;33.70;;;16.42;;
29196;SDS011;62796;42.654;23.316;2022-12-18T16:12:35;28.60;;;14.55;;
29196;SDS011;62796;42.654;23.316;2022-12-18T16:15:02;27.73;;;14.45;;
29196;SDS011;62796;42.654;23.316;2022-12-18T16:17:29;27.65;;;14.27;;
29196;SDS011;62796;42.654;23.316;2022-12-18T16:19:54;28.67;;;14.55;;
29196;SDS011;62796;42.654;23.316;2022-12-18T16:22:24;25.70;;;14.00;;
29196;SDS011;62796;42.654;23.316;2022-12-18T16:24:51;33.53;;;15.25;;
29196;SDS011;62796;42.654;23.316;2022-12-18T16:27:18;35.05;;;15.77;;
29196;SDS011;62796;42.654;23.316;2022-12-18T16:29:44;36.30;;;17.25;;